createdAt,value
2018-01-06T00:00:25.920Z,966.6
2018-01-06T00:01:28.445Z,966.6
2018-01-06T00:02:30.866Z,966.6
2018-01-06T00:03:33.306Z,966.6
2018-01-06T00:04:35.858Z,966.7
2018-01-06T00:05:38.310Z,966.5
2018-01-06T00:06:40.929Z,966.6
2018-01-06T00:07:43.403Z,966.6
2018-01-06T00:08:45.842Z,966.7
2018-01-06T00:09:48.334Z,966.7
2018-01-06T00:10:50.859Z,966.7
2018-01-06T00:11:53.330Z,966.8
2018-01-06T00:12:55.802Z,966.8
2018-01-06T00:13:58.253Z,966.8
2018-01-06T00:15:00.769Z,966.8
2018-01-06T00:16:03.276Z,966.8
2018-01-06T00:17:05.692Z,966.8
2018-01-06T00:18:08.161Z,966.9
2018-01-06T00:19:10.576Z,966.8
2018-01-06T00:20:13.450Z,966.6
2018-01-06T00:21:21.915Z,966.3
2018-01-06T00:22:24.354Z,966.7
2018-01-06T00:23:26.739Z,966.7
2018-01-06T00:24:29.133Z,966.7
2018-01-06T00:25:31.590Z,966.8
2018-01-06T00:26:38.619Z,966.8
2018-01-06T00:27:41.023Z,966.8
2018-01-06T00:28:43.412Z,966.7
2018-01-06T00:29:45.855Z,966.9
2018-01-06T00:30:48.235Z,966.9
2018-01-06T00:31:50.704Z,966.9
2018-01-06T00:32:53.155Z,966.9
2018-01-06T00:33:55.564Z,967
2018-01-06T00:34:57.981Z,966.9
2018-01-06T00:36:00.421Z,966.8
2018-01-06T00:37:02.934Z,967
2018-01-06T00:38:05.451Z,967
2018-01-06T00:39:08.012Z,967.1
2018-01-06T00:40:10.474Z,967
2018-01-06T00:41:13.005Z,967
2018-01-06T00:42:18.136Z,967
2018-01-06T00:43:20.605Z,967
2018-01-06T00:44:23.128Z,967
2018-01-06T00:45:25.534Z,967
2018-01-06T00:46:28.038Z,967
2018-01-06T00:47:30.548Z,966.9
2018-01-06T00:48:33.113Z,967
2018-01-06T00:49:35.575Z,967
2018-01-06T00:50:38.038Z,966.9
2018-01-06T00:51:40.451Z,966.9
2018-01-06T00:52:42.977Z,967
2018-01-06T00:53:45.377Z,967
2018-01-06T00:54:47.810Z,967
2018-01-06T00:55:50.297Z,967.1
2018-01-06T00:57:02.474Z,967
2018-01-06T00:58:04.909Z,966.7
2018-01-06T00:59:07.385Z,967.1
2018-01-06T01:00:09.833Z,967
2018-01-06T01:01:12.323Z,967.1
2018-01-06T01:02:14.742Z,967
2018-01-06T01:03:17.302Z,967.2
2018-01-06T01:04:19.731Z,967.1
2018-01-06T01:05:22.207Z,967.1
2018-01-06T01:06:24.595Z,967.1
2018-01-06T01:07:27.036Z,967.1
2018-01-06T01:08:29.451Z,967.1
2018-01-06T01:09:31.885Z,967.2
2018-01-06T01:10:34.305Z,967.2
2018-01-06T01:11:36.772Z,966.9
2018-01-06T01:12:39.176Z,967.2
2018-01-06T01:13:41.601Z,967.2
2018-01-06T01:14:44.085Z,967.2
2018-01-06T01:15:46.593Z,967.2
2018-01-06T01:16:48.996Z,967.2
2018-01-06T01:17:51.436Z,967.3
2018-01-06T01:18:53.946Z,967.3
2018-01-06T01:19:56.425Z,967.3
2018-01-06T01:20:58.833Z,967.3
2018-01-06T01:22:01.320Z,967.3
2018-01-06T01:23:09.011Z,967.3
2018-01-06T01:24:11.657Z,967.3
2018-01-06T01:25:14.138Z,967.3
2018-01-06T01:26:16.554Z,967.4
2018-01-06T01:27:19.387Z,967.3
2018-01-06T01:28:22.057Z,967.2
2018-01-06T01:29:24.500Z,967.3
2018-01-06T01:30:26.931Z,967.3
2018-01-06T01:31:29.407Z,967.3
2018-01-06T01:32:31.850Z,967.3
2018-01-06T01:33:34.319Z,967.4
2018-01-06T01:34:36.903Z,967.4
2018-01-06T01:35:39.361Z,967.4
2018-01-06T01:36:43.422Z,967.4
2018-01-06T01:37:45.898Z,967.4
2018-01-06T01:38:48.349Z,967.4
2018-01-06T01:39:50.689Z,967.4
2018-01-06T01:40:53.124Z,967.5
2018-01-06T01:41:55.556Z,967.4
2018-01-06T01:42:59.200Z,967.4
2018-01-06T01:44:01.880Z,967.4
2018-01-06T01:45:04.387Z,967.5
2018-01-06T01:46:06.851Z,967.4
2018-01-06T01:47:09.280Z,967.4
2018-01-06T01:48:11.686Z,967.5
2018-01-06T01:49:14.125Z,967.4
2018-01-06T01:50:16.610Z,967.4
2018-01-06T01:51:19.055Z,967.5
2018-01-06T01:52:21.457Z,967.5
2018-01-06T01:53:23.889Z,967.6
2018-01-06T01:54:26.340Z,967.6
2018-01-06T01:55:28.791Z,967.6
2018-01-06T01:56:31.154Z,967.6
2018-01-06T01:57:33.623Z,967.6
2018-01-06T01:58:36.540Z,967.7
2018-01-06T01:59:39.026Z,967.6
2018-01-06T02:00:41.461Z,967.7
2018-01-06T02:01:43.911Z,967.7
2018-01-06T02:02:46.416Z,967.8
2018-01-06T02:03:48.883Z,967.7
2018-01-06T02:04:51.722Z,967.7
2018-01-06T02:05:54.122Z,967.7
2018-01-06T02:06:56.584Z,967.8
2018-01-06T02:07:59.017Z,967.9
2018-01-06T02:09:01.481Z,967.7
2018-01-06T02:10:03.952Z,967.7
2018-01-06T02:11:06.419Z,967.8
2018-01-06T02:12:09.981Z,967.8
2018-01-06T02:13:12.376Z,967.9
2018-01-06T02:14:14.818Z,967.7
2018-01-06T02:15:17.258Z,968
2018-01-06T02:16:19.684Z,967.7
2018-01-06T02:17:22.133Z,967.9
2018-01-06T02:18:24.575Z,967.9
2018-01-06T02:19:26.986Z,967.9
2018-01-06T02:20:29.396Z,967.9
2018-01-06T02:21:31.827Z,967.9
2018-01-06T02:22:34.299Z,968
2018-01-06T02:23:36.742Z,968
2018-01-06T02:24:39.150Z,967.9
2018-01-06T02:25:41.588Z,967.9
2018-01-06T02:26:44.045Z,968
2018-01-06T02:27:46.492Z,968
2018-01-06T02:28:48.918Z,968
2018-01-06T02:29:51.388Z,968
2018-01-06T02:30:53.867Z,968
2018-01-06T02:31:56.285Z,968
2018-01-06T02:32:58.742Z,968
2018-01-06T02:34:01.202Z,968
2018-01-06T02:35:03.735Z,968
2018-01-06T02:36:06.259Z,968
2018-01-06T02:37:08.740Z,968
2018-01-06T02:38:11.128Z,967.8
2018-01-06T02:39:13.583Z,968
2018-01-06T02:40:16.104Z,968
2018-01-06T02:41:22.219Z,968
2018-01-06T02:42:24.708Z,968.1
2018-01-06T02:43:27.072Z,968
2018-01-06T02:44:29.461Z,967.8
2018-01-06T02:45:31.925Z,968
2018-01-06T02:46:34.375Z,968
2018-01-06T02:47:36.902Z,968.1
2018-01-06T02:48:39.335Z,968
2018-01-06T02:49:41.758Z,968
2018-01-06T02:50:44.152Z,968
2018-01-06T02:51:46.715Z,968
2018-01-06T02:52:49.144Z,968
2018-01-06T02:53:51.534Z,967.9
2018-01-06T02:54:54.053Z,968
2018-01-06T02:55:56.571Z,967.9
2018-01-06T02:56:58.990Z,968.1
2018-01-06T02:58:01.460Z,968.1
2018-01-06T02:59:03.877Z,968.2
2018-01-06T03:00:06.784Z,968.2
2018-01-06T03:01:09.212Z,968.2
2018-01-06T03:02:11.692Z,968.1
2018-01-06T03:03:14.135Z,968.2
2018-01-06T03:04:16.688Z,968.2
2018-01-06T03:05:19.092Z,968.1
2018-01-06T03:06:21.494Z,968.2
2018-01-06T03:07:23.988Z,968.2
2018-01-06T03:08:26.517Z,968.2
2018-01-06T03:09:28.982Z,968.2
2018-01-06T03:10:31.375Z,968.3
2018-01-06T03:11:33.815Z,968.3
2018-01-06T03:12:40.701Z,968.3
2018-01-06T03:13:43.159Z,968.2
2018-01-06T03:14:45.571Z,968.2
2018-01-06T03:15:47.999Z,968.1
2018-01-06T03:16:50.457Z,968.2
2018-01-06T03:17:53.053Z,968.2
2018-01-06T03:18:55.432Z,968.2
2018-01-06T03:19:57.923Z,968.2
2018-01-06T03:21:00.371Z,968.2
2018-01-06T03:22:02.858Z,968.2
2018-01-06T03:23:05.297Z,968.3
2018-01-06T03:24:07.704Z,968.2
2018-01-06T03:25:10.154Z,968.2
2018-01-06T03:26:12.652Z,968.2
2018-01-06T03:27:15.153Z,968.2
2018-01-06T03:28:17.767Z,968.2
2018-01-06T03:29:20.200Z,968.3
2018-01-06T03:30:22.634Z,968.3
2018-01-06T03:31:25.061Z,968.3
2018-01-06T03:32:27.600Z,968.2
2018-01-06T03:33:30.036Z,968.2
2018-01-06T03:34:32.488Z,968.3
2018-01-06T03:35:34.904Z,968.3
2018-01-06T03:36:37.360Z,968.3
2018-01-06T03:37:39.762Z,968.4
2018-01-06T03:38:42.329Z,968.4
2018-01-06T03:39:44.758Z,968.4
2018-01-06T03:40:47.326Z,968.4
2018-01-06T03:41:49.754Z,968.4
2018-01-06T03:42:52.377Z,968.4
2018-01-06T03:43:54.804Z,968.4
2018-01-06T03:44:57.300Z,968.4
2018-01-06T03:45:59.761Z,968.3
2018-01-06T03:47:02.235Z,968.5
2018-01-06T03:48:04.705Z,968.4
2018-01-06T03:49:07.275Z,968.4
2018-01-06T03:50:09.822Z,968.4
2018-01-06T03:51:12.287Z,968.4
2018-01-06T03:52:14.798Z,968.5
2018-01-06T03:53:17.277Z,968.5
2018-01-06T03:54:19.735Z,968.5
2018-01-06T03:55:22.180Z,968.5
2018-01-06T03:56:24.616Z,968.5
2018-01-06T03:57:27.057Z,968.6
2018-01-06T03:58:29.560Z,968.6
2018-01-06T03:59:32.040Z,968.6
2018-01-06T04:00:34.480Z,968.6
2018-01-06T04:01:36.976Z,968.5
2018-01-06T04:02:39.613Z,968.6
2018-01-06T04:03:42.019Z,968.6
2018-01-06T04:04:44.445Z,968.7
2018-01-06T04:05:46.903Z,968.7
2018-01-06T04:06:49.404Z,968.6
2018-01-06T04:07:51.949Z,968.6
2018-01-06T04:08:54.408Z,968.7
2018-01-06T04:09:56.935Z,968.5
2018-01-06T04:10:59.386Z,968.5
2018-01-06T04:12:01.914Z,968.5
2018-01-06T04:13:04.376Z,968.6
2018-01-06T04:14:06.841Z,968.5
2018-01-06T04:15:09.302Z,968.6
2018-01-06T04:16:11.664Z,968.6
2018-01-06T04:17:14.142Z,968.7
2018-01-06T04:18:16.560Z,968.7
2018-01-06T04:19:19.030Z,968.7
2018-01-06T04:20:21.532Z,968.7
2018-01-06T04:21:23.976Z,968.7
2018-01-06T04:22:26.462Z,968.8
2018-01-06T04:23:28.990Z,968.8
2018-01-06T04:24:31.393Z,968.7
2018-01-06T04:25:34.015Z,968.7
2018-01-06T04:26:36.537Z,968.7
2018-01-06T04:27:38.955Z,968.8
2018-01-06T04:28:41.370Z,968.7
2018-01-06T04:29:44.023Z,968.7
2018-01-06T04:30:46.516Z,968.7
2018-01-06T04:31:49.010Z,968.7
2018-01-06T04:32:51.442Z,968.7
2018-01-06T04:33:54.037Z,968.7
2018-01-06T04:34:56.527Z,968.7
2018-01-06T04:35:58.988Z,968.8
2018-01-06T04:37:01.574Z,968.7
2018-01-06T04:38:04.077Z,968.7
2018-01-06T04:39:06.541Z,968.7
2018-01-06T04:40:09.023Z,968.7
2018-01-06T04:41:11.558Z,968.7
2018-01-06T04:42:13.995Z,968.7
2018-01-06T04:43:16.492Z,968.7
2018-01-06T04:44:18.941Z,968.8
2018-01-06T04:45:21.324Z,968.7
2018-01-06T04:46:23.832Z,968.6
2018-01-06T04:47:26.272Z,968.8
2018-01-06T04:48:28.726Z,968.9
2018-01-06T04:49:31.190Z,968.8
2018-01-06T04:50:33.583Z,968.8
2018-01-06T04:51:36.143Z,968.9
2018-01-06T04:52:38.678Z,968.9
2018-01-06T04:53:41.091Z,968.9
2018-01-06T04:54:43.497Z,968.9
2018-01-06T04:55:45.987Z,968.9
2018-01-06T04:56:48.451Z,968.9
2018-01-06T04:57:50.869Z,968.9
2018-01-06T04:58:53.432Z,968.9
2018-01-06T04:59:55.932Z,968.9
2018-01-06T05:00:58.363Z,968.7
2018-01-06T05:02:00.813Z,968.9
2018-01-06T05:03:03.266Z,969
2018-01-06T05:04:05.722Z,969
2018-01-06T05:05:08.200Z,969
2018-01-06T05:06:10.635Z,969
2018-01-06T05:07:13.110Z,969
2018-01-06T05:08:15.532Z,968.9
2018-01-06T05:09:17.965Z,969
2018-01-06T05:10:20.471Z,969
2018-01-06T05:11:23.015Z,969.1
2018-01-06T05:12:25.441Z,969.1
2018-01-06T05:13:27.914Z,969.1
2018-01-06T05:14:30.312Z,969.1
2018-01-06T05:15:32.798Z,969.1
2018-01-06T05:16:35.178Z,969.1
2018-01-06T05:17:37.686Z,968.9
2018-01-06T05:18:40.061Z,969.1
2018-01-06T05:19:42.551Z,969.1
2018-01-06T05:20:44.928Z,969.1
2018-01-06T05:21:47.463Z,969
2018-01-06T05:22:49.935Z,969
2018-01-06T05:23:52.374Z,969
2018-01-06T05:24:54.821Z,969.1
2018-01-06T05:25:57.288Z,969.1
2018-01-06T05:26:59.678Z,969.1
2018-01-06T05:28:08.819Z,969.1
2018-01-06T05:29:11.290Z,969.1
2018-01-06T05:30:13.725Z,969
2018-01-06T05:31:16.215Z,968.9
2018-01-06T05:32:18.721Z,969.1
2018-01-06T05:33:21.163Z,969.1
2018-01-06T05:34:23.609Z,969.1
2018-01-06T05:35:26.041Z,969.2
2018-01-06T05:36:28.674Z,969.1
2018-01-06T05:37:31.105Z,969.2
2018-01-06T05:38:33.601Z,969.1
2018-01-06T05:39:36.070Z,969.2
2018-01-06T05:40:38.572Z,968.9
2018-01-06T05:41:40.993Z,969.1
2018-01-06T05:42:43.418Z,969.2
2018-01-06T05:43:46.064Z,969.2
2018-01-06T05:44:48.577Z,969.2
2018-01-06T05:45:51.034Z,969.2
2018-01-06T05:46:53.675Z,969.2
2018-01-06T05:47:56.133Z,969.3
2018-01-06T05:48:58.666Z,969.1
2018-01-06T05:50:01.108Z,969.4
2018-01-06T05:51:03.651Z,969.2
2018-01-06T05:52:06.625Z,969.5
2018-01-06T05:53:09.101Z,969.4
2018-01-06T05:54:11.800Z,969.4
2018-01-06T05:55:14.203Z,969.5
2018-01-06T05:56:16.791Z,969.4
2018-01-06T05:57:19.262Z,969.5
2018-01-06T05:58:21.720Z,969.3
2018-01-06T05:59:24.255Z,969.5
2018-01-06T06:00:26.774Z,969.6
2018-01-06T06:01:30.236Z,969.6
2018-01-06T06:02:32.630Z,969.7
2018-01-06T06:03:35.089Z,969.5
2018-01-06T06:04:37.607Z,969.7
2018-01-06T06:05:40.110Z,969.7
2018-01-06T06:06:42.656Z,969.8
2018-01-06T06:07:51.851Z,969.7
2018-01-06T06:08:54.291Z,969.8
2018-01-06T06:09:57.609Z,969.8
2018-01-06T06:11:00.346Z,969.8
2018-01-06T06:12:02.877Z,969.8
2018-01-06T06:13:05.420Z,969.9
2018-01-06T06:14:10.148Z,969.9
2018-01-06T06:15:12.658Z,969.9
2018-01-06T06:16:15.112Z,970
2018-01-06T06:17:17.662Z,969.9
2018-01-06T06:18:20.244Z,970
2018-01-06T06:19:22.778Z,970
2018-01-06T06:20:25.313Z,969.9
2018-01-06T06:21:27.942Z,970
2018-01-06T06:22:30.387Z,970
2018-01-06T06:23:32.772Z,969.9
2018-01-06T06:24:35.271Z,969.9
2018-01-06T06:25:43.344Z,970
2018-01-06T06:26:45.794Z,969.9
2018-01-06T06:27:48.300Z,969.9
2018-01-06T06:28:50.794Z,969.9
2018-01-06T06:29:53.225Z,969.9
2018-01-06T06:30:55.692Z,969.9
2018-01-06T06:31:58.165Z,970
2018-01-06T06:33:00.650Z,969.9
2018-01-06T06:34:03.093Z,970
2018-01-06T06:35:05.553Z,970
2018-01-06T06:36:07.995Z,970
2018-01-06T06:37:10.659Z,970
2018-01-06T06:38:13.160Z,969.9
2018-01-06T06:39:15.588Z,969.9
2018-01-06T06:40:18.069Z,969.7
2018-01-06T06:41:20.558Z,969.9
2018-01-06T06:42:23.006Z,969.6
2018-01-06T06:43:25.466Z,969.9
2018-01-06T06:44:28.077Z,969.9
2018-01-06T06:45:30.585Z,969.9
2018-01-06T06:46:33.148Z,969.9
2018-01-06T06:47:35.654Z,969.9
2018-01-06T06:48:38.194Z,969.8
2018-01-06T06:49:40.677Z,969.9
2018-01-06T06:50:47.925Z,969.7
2018-01-06T06:51:50.412Z,969.9
2018-01-06T06:52:53.025Z,969.9
2018-01-06T06:53:55.588Z,969.9
2018-01-06T06:54:58.128Z,969.9
2018-01-06T06:56:00.666Z,969.8
2018-01-06T06:57:07.074Z,969.8
2018-01-06T06:58:09.642Z,969.9
2018-01-06T06:59:12.146Z,969.9
2018-01-06T07:00:15.063Z,969.9
2018-01-06T07:01:17.690Z,969.9
2018-01-06T07:02:20.154Z,969.9
2018-01-06T07:03:22.636Z,969.9
2018-01-06T07:04:25.186Z,969.8
2018-01-06T07:05:27.730Z,969.8
2018-01-06T07:06:30.157Z,969.9
2018-01-06T07:07:32.646Z,969.8
2018-01-06T07:08:35.268Z,969.9
2018-01-06T07:09:37.762Z,969.9
2018-01-06T07:10:40.261Z,969.9
2018-01-06T07:11:42.696Z,970
2018-01-06T07:12:45.183Z,970
2018-01-06T07:13:47.803Z,970
2018-01-06T07:14:50.299Z,970.1
2018-01-06T07:15:52.864Z,970.1
2018-01-06T07:16:55.367Z,970.1
2018-01-06T07:17:57.859Z,970.2
2018-01-06T07:19:00.324Z,970.1
2018-01-06T07:20:02.995Z,970.1
2018-01-06T07:21:05.548Z,970.1
2018-01-06T07:22:08.132Z,970.2
2018-01-06T07:23:10.577Z,970.2
2018-01-06T07:24:13.129Z,970.2
2018-01-06T07:25:15.733Z,970.2
2018-01-06T07:26:18.369Z,970.3
2018-01-06T07:27:21.013Z,970.2
2018-01-06T07:28:23.635Z,970.3
2018-01-06T07:29:26.190Z,970.4
2018-01-06T07:30:28.895Z,970.3
2018-01-06T07:31:31.444Z,970.3
2018-01-06T07:32:33.988Z,970.3
2018-01-06T07:33:36.598Z,970.3
2018-01-06T07:34:39.205Z,970.4
2018-01-06T07:35:41.694Z,970.4
2018-01-06T07:36:44.135Z,970.4
2018-01-06T07:37:46.716Z,970.2
2018-01-06T07:38:49.337Z,970.4
2018-01-06T07:39:51.807Z,970.4
2018-01-06T07:40:54.281Z,970.5
2018-01-06T07:41:56.755Z,970.5
2018-01-06T07:42:59.259Z,970.4
2018-01-06T07:44:04.208Z,970.4
2018-01-06T07:45:06.805Z,970.5
2018-01-06T07:46:09.368Z,970.5
2018-01-06T07:47:11.851Z,970.4
2018-01-06T07:48:14.302Z,970.5
2018-01-06T07:49:16.759Z,970.5
2018-01-06T07:50:19.320Z,970.5
2018-01-06T07:51:27.649Z,970.5
2018-01-06T07:52:30.184Z,970.5
2018-01-06T07:53:32.704Z,970.5
2018-01-06T07:54:35.272Z,970.5
2018-01-06T07:55:37.909Z,970.5
2018-01-06T07:56:40.399Z,970.6
2018-01-06T07:57:43.010Z,970.6
2018-01-06T07:58:45.547Z,970.6
2018-01-06T07:59:48.167Z,970.6
2018-01-06T08:00:50.698Z,970.6
2018-01-06T08:01:53.205Z,970.6
2018-01-06T08:02:55.642Z,970.7
2018-01-06T08:03:58.357Z,970.7
2018-01-06T08:05:00.851Z,970.7
2018-01-06T08:06:03.342Z,970.7
2018-01-06T08:07:05.842Z,970.7
2018-01-06T08:08:08.509Z,970.8
2018-01-06T08:09:10.976Z,970.8
2018-01-06T08:10:13.607Z,970.7
2018-01-06T08:11:16.062Z,970.7
2018-01-06T08:12:18.679Z,970.7
2018-01-06T08:13:21.279Z,970.7
2018-01-06T08:14:23.793Z,970.7
2018-01-06T08:15:26.264Z,970.8
2018-01-06T08:16:28.869Z,970.8
2018-01-06T08:17:31.447Z,970.8
2018-01-06T08:18:33.931Z,970.8
2018-01-06T08:19:36.479Z,970.9
2018-01-06T08:20:39.129Z,970.8
2018-01-06T08:21:41.746Z,970.9
2018-01-06T08:22:44.235Z,970.9
2018-01-06T08:23:46.857Z,970.9
2018-01-06T08:24:49.415Z,970.9
2018-01-06T08:25:51.898Z,971
2018-01-06T08:26:54.497Z,971
2018-01-06T08:27:57.122Z,971
2018-01-06T08:28:59.828Z,970.8
2018-01-06T08:30:02.588Z,971
2018-01-06T08:31:05.106Z,971.1
2018-01-06T08:32:07.613Z,971.1
2018-01-06T08:33:10.470Z,971.1
2018-01-06T08:34:12.984Z,971.1
2018-01-06T08:35:15.513Z,971.1
2018-01-06T08:36:19.980Z,971
2018-01-06T08:37:22.464Z,971
2018-01-06T08:38:24.957Z,971
2018-01-06T08:39:32.293Z,970.8
2018-01-06T08:40:34.794Z,971
2018-01-06T08:41:37.557Z,971
2018-01-06T08:42:40.020Z,971
2018-01-06T08:43:42.503Z,971
2018-01-06T08:44:44.993Z,970.9
2018-01-06T08:45:47.460Z,971.1
2018-01-06T08:46:50.020Z,971
2018-01-06T08:47:52.593Z,971
2018-01-06T08:48:55.051Z,971
2018-01-06T08:49:57.617Z,970.8
2018-01-06T08:51:00.195Z,971
2018-01-06T08:52:02.771Z,971.2
2018-01-06T08:53:05.280Z,971.2
2018-01-06T08:54:07.813Z,970.9
2018-01-06T08:55:10.386Z,971.2
2018-01-06T08:56:12.884Z,971.1
2018-01-06T08:57:15.455Z,971.1
2018-01-06T08:58:17.999Z,971.2
2018-01-06T08:59:20.588Z,971.1
2018-01-06T09:00:23.124Z,971.2
2018-01-06T09:01:25.648Z,971.1
2018-01-06T09:02:28.205Z,971.1
2018-01-06T09:03:30.842Z,971.2
2018-01-06T09:03:56.533Z,971.2
2018-01-06T09:04:59.196Z,971
2018-01-06T09:06:01.849Z,971.3
2018-01-06T09:07:04.861Z,971.3
2018-01-06T09:08:07.479Z,971.3
2018-01-06T09:09:10.427Z,971.2
2018-01-06T09:10:13.382Z,971.4
2018-01-06T09:11:22.286Z,971.3
2018-01-06T09:12:25.008Z,971.4
2018-01-06T09:13:27.668Z,971.4
2018-01-06T09:14:30.377Z,971.4
2018-01-06T09:15:33.328Z,971.4
2018-01-06T09:16:35.916Z,971.4
2018-01-06T09:17:39.017Z,971.4
2018-01-06T09:18:41.673Z,971.4
2018-01-06T09:19:44.397Z,971.5
2018-01-06T09:20:47.287Z,971.5
2018-01-06T09:21:50.082Z,971.5
2018-01-06T09:22:52.987Z,971.6
2018-01-06T09:23:56.355Z,971.6
2018-01-06T09:24:59.132Z,971.4
2018-01-06T09:26:02.021Z,971.7
2018-01-06T09:27:04.986Z,971.7
2018-01-06T09:28:11.439Z,971.7
2018-01-06T09:29:14.298Z,971.7
2018-01-06T09:30:17.541Z,971.8
2018-01-06T09:31:20.671Z,971.6
2018-01-06T09:32:23.313Z,971.7
2018-01-06T09:33:25.943Z,971.7
2018-01-06T09:34:28.881Z,971.6
2018-01-06T09:35:31.574Z,971.8
2018-01-06T09:36:34.210Z,971.8
2018-01-06T09:37:36.874Z,971.8
2018-01-06T09:38:44.025Z,971.8
2018-01-06T09:39:47.036Z,971.8
2018-01-06T09:40:49.950Z,971.8
2018-01-06T09:41:59.543Z,971.8
2018-01-06T09:43:02.227Z,971.8
2018-01-06T09:44:04.948Z,971.8
2018-01-06T09:45:08.791Z,971.6
2018-01-06T09:46:11.591Z,971.8
2018-01-06T09:47:14.261Z,971.7
2018-01-06T09:48:17.044Z,971.9
2018-01-06T09:49:19.858Z,971.9
2018-01-06T09:50:22.624Z,971.8
2018-01-06T09:51:26.514Z,971.8
2018-01-06T09:52:29.572Z,971.8
2018-01-06T09:53:33.185Z,971.9
2018-01-06T09:54:35.943Z,971.8
2018-01-06T09:55:38.850Z,971.7
2018-01-06T09:56:41.731Z,971.8
2018-01-06T09:57:44.785Z,971.7
2018-01-06T09:58:47.415Z,971.7
2018-01-06T09:59:50.487Z,971.7
2018-01-06T10:00:53.372Z,971.7
2018-01-06T10:01:56.063Z,971.7
2018-01-06T10:02:58.899Z,971.7
2018-01-06T10:04:01.708Z,971.7
2018-01-06T10:05:10.775Z,971.8
2018-01-06T10:06:13.593Z,971.5
2018-01-06T10:07:23.538Z,971.6
2018-01-06T10:08:26.309Z,971.8
2018-01-06T10:09:29.136Z,971.7
2018-01-06T10:10:32.305Z,971.8
2018-01-06T10:11:35.005Z,971.7
2018-01-06T10:12:37.965Z,971.9
2018-01-06T10:13:41.379Z,971.7
2018-01-06T10:14:44.180Z,972
2018-01-06T10:15:46.912Z,971.9
2018-01-06T10:16:49.669Z,972
2018-01-06T10:17:52.382Z,972
2018-01-06T10:19:01.139Z,972
2018-01-06T10:20:04.508Z,972
2018-01-06T10:21:07.265Z,972
2018-01-06T10:22:10.085Z,972
2018-01-06T10:23:12.805Z,972
2018-01-06T10:24:15.472Z,972.1
2018-01-06T10:25:18.187Z,972
2018-01-06T10:26:20.886Z,972.1
2018-01-06T10:27:23.665Z,972.1
2018-01-06T10:28:26.371Z,972.1
2018-01-06T10:29:29.107Z,972.1
2018-01-06T10:30:32.216Z,972.1
2018-01-06T10:31:35.332Z,972.1
2018-01-06T10:32:39.123Z,972.1
2018-01-06T10:33:41.837Z,972.1
2018-01-06T10:34:44.477Z,972.1
2018-01-06T10:35:47.153Z,972.2
2018-01-06T10:36:50.202Z,971.9
2018-01-06T10:37:53.497Z,972.1
2018-01-06T10:38:56.327Z,972.1
2018-01-06T10:39:59.072Z,972.1
2018-01-06T10:41:01.765Z,972
2018-01-06T10:42:05.114Z,972
2018-01-06T10:43:13.790Z,971.9
2018-01-06T10:44:16.667Z,972
2018-01-06T10:45:19.498Z,972
2018-01-06T10:46:22.189Z,972.1
2018-01-06T10:47:24.934Z,972.1
2018-01-06T10:48:27.589Z,972.1
2018-01-06T10:49:30.714Z,972.1
2018-01-06T10:50:33.365Z,972.1
2018-01-06T10:51:36.221Z,972.1
2018-01-06T10:52:39.425Z,972.1
2018-01-06T10:53:42.188Z,972.1
2018-01-06T10:54:45.185Z,972.1
2018-01-06T10:55:48.248Z,972.1
2018-01-06T10:56:51.079Z,972.1
2018-01-06T10:57:53.880Z,972.1
2018-01-06T10:58:56.657Z,972.1
2018-01-06T10:59:59.511Z,972.1
2018-01-06T11:01:02.379Z,972.1
2018-01-06T11:02:05.191Z,972.1
2018-01-06T11:03:08.032Z,972
2018-01-06T11:04:10.798Z,972
2018-01-06T11:05:14.267Z,972
2018-01-06T11:06:17.410Z,972
2018-01-06T11:07:20.254Z,972.1
2018-01-06T11:08:22.895Z,972
2018-01-06T11:09:26.019Z,972.1
2018-01-06T11:10:28.746Z,972
2018-01-06T11:11:31.495Z,972.2
2018-01-06T11:12:34.116Z,972.3
2018-01-06T11:13:36.931Z,972.2
2018-01-06T11:14:39.748Z,972.1
2018-01-06T11:15:42.538Z,972.1
2018-01-06T11:16:45.167Z,972.2
2018-01-06T11:17:48.536Z,972.1
2018-01-06T11:18:51.372Z,972.1
2018-01-06T11:19:54.012Z,972
2018-01-06T11:20:56.729Z,972.1
2018-01-06T11:21:59.512Z,972.1
2018-01-06T11:23:02.381Z,972.1
2018-01-06T11:24:05.057Z,972.1
2018-01-06T11:25:11.148Z,972.1
2018-01-06T11:26:13.836Z,972.1
2018-01-06T11:27:16.897Z,972.1
2018-01-06T11:28:20.196Z,972.1
2018-01-06T11:29:23.040Z,971.9
2018-01-06T11:30:25.729Z,972.1
2018-01-06T11:31:28.424Z,972.2
2018-01-06T11:32:36.289Z,972.1
2018-01-06T11:33:39.006Z,972.2
2018-01-06T11:34:42.948Z,972
2018-01-06T11:35:45.861Z,972.2
2018-01-06T11:36:48.457Z,972.2
2018-01-06T11:37:51.435Z,972.2
2018-01-06T11:38:54.351Z,972.2
2018-01-06T11:39:56.956Z,972.2
2018-01-06T11:40:59.731Z,972.2
2018-01-06T11:42:02.716Z,972.1
2018-01-06T11:43:05.321Z,972.2
2018-01-06T11:44:08.813Z,972.1
2018-01-06T11:45:11.819Z,972.1
2018-01-06T11:46:15.102Z,972.1
2018-01-06T11:47:17.983Z,972.1
2018-01-06T11:48:20.968Z,972.1
2018-01-06T11:49:23.934Z,972.1
2018-01-06T11:50:26.656Z,972.1
2018-01-06T11:51:29.348Z,972.1
2018-01-06T11:52:32.112Z,972.1
2018-01-06T11:53:34.914Z,972.2
2018-01-06T11:54:37.912Z,972.1
2018-01-06T11:55:40.873Z,972
2018-01-06T11:56:43.697Z,972.2
2018-01-06T11:57:46.322Z,972.2
2018-01-06T11:58:49.291Z,972.2
2018-01-06T11:59:52.513Z,972.2
2018-01-06T12:00:55.142Z,972.2
2018-01-06T12:01:57.835Z,972.1
2018-01-06T12:03:00.941Z,972.2
2018-01-06T12:04:03.789Z,972.2
2018-01-06T12:05:06.374Z,972.2
2018-01-06T12:06:09.118Z,972.1
2018-01-06T12:07:12.070Z,972.2
2018-01-06T12:08:14.804Z,972.2
2018-01-06T12:09:17.440Z,972.1
2018-01-06T12:10:20.300Z,972.2
2018-01-06T12:11:22.942Z,972.2
2018-01-06T12:12:25.801Z,972.2
2018-01-06T12:13:28.433Z,972.3
2018-01-06T12:14:31.206Z,972.3
2018-01-06T12:15:33.883Z,972.2
2018-01-06T12:17:51.388Z,972.4
2018-01-06T12:18:54.095Z,972.4
2018-01-06T12:19:56.676Z,972.2
2018-01-06T12:20:59.602Z,972.3
2018-01-06T12:22:02.870Z,972.2
2018-01-06T12:23:05.568Z,972.3
2018-01-06T12:24:08.547Z,972.3
2018-01-06T12:25:11.434Z,972.4
2018-01-06T12:26:14.220Z,972.2
2018-01-06T12:27:17.080Z,972.4
2018-01-06T12:28:20.018Z,972.4
2018-01-06T12:29:22.807Z,972.3
2018-01-06T12:30:25.537Z,972.3
2018-01-06T12:31:28.157Z,972.3
2018-01-06T12:32:31.166Z,972.3
2018-01-06T12:33:33.967Z,972.4
2018-01-06T12:34:36.589Z,972.4
2018-01-06T12:35:39.328Z,972.4
2018-01-06T12:36:42.124Z,972.4
2018-01-06T12:37:44.951Z,972.4
2018-01-06T12:38:47.625Z,972.4
2018-01-06T12:39:50.860Z,972.4
2018-01-06T12:40:53.541Z,972.5
2018-01-06T12:41:56.183Z,972.5
2018-01-06T12:42:58.924Z,972.5
2018-01-06T12:44:01.865Z,972.5
2018-01-06T12:45:04.497Z,972.4
2018-01-06T12:46:08.159Z,972.3
2018-01-06T12:47:11.204Z,972.2
2018-01-06T12:48:13.859Z,972.5
2018-01-06T12:49:16.566Z,972.5
2018-01-06T12:50:19.299Z,972.5
2018-01-06T12:51:22.064Z,972.5
2018-01-06T12:52:27.783Z,972.5
2018-01-06T12:53:30.560Z,972.4
2018-01-06T12:54:33.193Z,972.5
2018-01-06T12:55:35.861Z,972.5
2018-01-06T12:56:38.552Z,972.5
2018-01-06T12:57:41.390Z,972.5
2018-01-06T12:58:44.073Z,972.5
2018-01-06T12:59:46.757Z,972.5
2018-01-06T13:00:49.473Z,972.5
2018-01-06T13:01:52.227Z,972.5
2018-01-06T13:02:54.770Z,972.4
2018-01-06T13:03:57.358Z,972.5
2018-01-06T13:05:00.312Z,972.5
2018-01-06T13:06:03.044Z,972.5
2018-01-06T13:07:05.831Z,972.6
2018-01-06T13:08:08.537Z,972.6
2018-01-06T13:09:11.301Z,972.6
2018-01-06T13:10:13.865Z,972.6
2018-01-06T13:11:16.455Z,972.6
2018-01-06T13:12:19.106Z,972.6
2018-01-06T13:13:21.907Z,972.7
2018-01-06T13:14:24.540Z,972.7
2018-01-06T13:15:27.239Z,972.7
2018-01-06T13:16:30.241Z,972.7
2018-01-06T13:17:32.829Z,972.8
2018-01-06T13:18:35.619Z,972.7
2018-01-06T13:19:38.245Z,972.8
2018-01-06T13:20:41.108Z,972.8
2018-01-06T13:21:43.783Z,972.8
2018-01-06T13:22:46.397Z,972.6
2018-01-06T13:23:49.442Z,972.8
2018-01-06T13:24:52.062Z,972.8
2018-01-06T13:25:54.704Z,972.8
2018-01-06T13:26:57.317Z,972.8
2018-01-06T13:28:00.272Z,972.8
2018-01-06T13:29:03.248Z,972.8
2018-01-06T13:30:05.929Z,972.8
2018-01-06T13:31:08.669Z,972.8
2018-01-06T13:32:11.584Z,972.8
2018-01-06T13:33:14.370Z,972.8
2018-01-06T13:34:17.256Z,972.8
2018-01-06T13:35:20.039Z,972.6
2018-01-06T13:36:22.649Z,972.8